createdAt,value
2022-10-05T00:00:23.777Z,53.86
2022-10-05T00:01:25.671Z,53.80
2022-10-05T00:02:27.482Z,53.79
2022-10-05T00:03:29.300Z,53.85
2022-10-05T00:04:31.125Z,53.76
2022-10-05T00:05:33.113Z,53.73
2022-10-05T00:06:34.953Z,53.81
2022-10-05T00:07:36.776Z,53.84
2022-10-05T00:08:38.600Z,53.87
2022-10-05T00:09:40.442Z,53.95
2022-10-05T00:10:42.316Z,53.99
2022-10-05T00:11:44.136Z,54.02
2022-10-05T00:12:45.961Z,54.02
2022-10-05T00:13:47.799Z,54.05
2022-10-05T00:14:49.655Z,54.04
2022-10-05T00:15:51.512Z,54.04
2022-10-05T00:16:53.858Z,54.05
2022-10-05T00:17:55.744Z,54.11
2022-10-05T00:18:57.575Z,54.19
2022-10-05T00:19:59.421Z,54.22
2022-10-05T00:21:01.296Z,54.27
2022-10-05T00:22:03.103Z,54.34
2022-10-05T00:23:04.928Z,54.39
2022-10-05T00:24:06.762Z,54.44
2022-10-05T00:25:08.593Z,54.38
2022-10-05T00:26:10.957Z,54.37
2022-10-05T00:27:12.788Z,54.36
2022-10-05T00:28:14.670Z,54.38
2022-10-05T00:29:16.862Z,54.40
2022-10-05T00:30:18.808Z,54.46
2022-10-05T00:31:20.744Z,54.45
2022-10-05T00:32:22.719Z,54.45
2022-10-05T00:33:24.565Z,54.50
2022-10-05T00:34:26.397Z,54.58
2022-10-05T00:35:28.248Z,54.54
2022-10-05T00:36:30.115Z,54.50
2022-10-05T00:37:31.954Z,54.53
2022-10-05T00:38:33.790Z,54.69
2022-10-05T00:39:35.621Z,54.66
2022-10-05T00:40:37.471Z,54.65
2022-10-05T00:41:39.346Z,54.63
2022-10-05T00:42:41.175Z,54.68
2022-10-05T00:43:43.000Z,54.71
2022-10-05T00:44:44.848Z,54.76
2022-10-05T00:45:46.737Z,54.79
2022-10-05T00:46:48.829Z,54.85
2022-10-05T00:47:50.841Z,54.92
2022-10-05T00:48:52.672Z,54.96
2022-10-05T00:49:54.500Z,55.04
2022-10-05T00:50:56.545Z,55.07
2022-10-05T00:51:58.434Z,55.13
2022-10-05T00:53:00.268Z,55.19
2022-10-05T00:54:02.122Z,55.15
2022-10-05T00:55:03.960Z,55.18
2022-10-05T00:56:06.206Z,55.22
2022-10-05T00:57:08.108Z,55.25
2022-10-05T00:58:09.965Z,55.24
2022-10-05T00:59:11.804Z,55.31
2022-10-05T01:00:13.747Z,55.30
2022-10-05T01:01:15.617Z,55.27
2022-10-05T01:02:17.485Z,55.15
2022-10-05T01:03:19.325Z,55.10
2022-10-05T01:04:21.188Z,55.10
2022-10-05T01:05:23.028Z,55.09
2022-10-05T01:06:24.870Z,55.09
2022-10-05T01:07:26.750Z,55.09
2022-10-05T01:08:28.605Z,55.09
2022-10-05T01:09:30.449Z,55.13
2022-10-05T01:10:32.281Z,55.16
2022-10-05T01:11:34.122Z,55.20
2022-10-05T01:12:36.023Z,55.22
2022-10-05T01:13:37.858Z,55.20
2022-10-05T01:14:39.691Z,55.23
2022-10-05T01:15:41.509Z,55.27
2022-10-05T01:16:43.676Z,55.23
2022-10-05T01:17:45.842Z,55.22
2022-10-05T01:18:47.699Z,55.22
2022-10-05T01:19:49.559Z,55.08
2022-10-05T01:20:51.414Z,55.07
2022-10-05T01:21:53.237Z,55.06
2022-10-05T01:22:55.118Z,55.05
2022-10-05T01:23:56.971Z,55.02
2022-10-05T01:24:58.799Z,55.03
2022-10-05T01:26:00.626Z,55.09
2022-10-05T01:27:02.480Z,55.03
2022-10-05T01:28:04.400Z,54.97
2022-10-05T01:29:06.397Z,54.85
2022-10-05T01:30:08.838Z,54.74
2022-10-05T01:31:10.732Z,54.69
2022-10-05T01:32:12.619Z,54.67
2022-10-05T01:33:14.499Z,54.69
2022-10-05T01:34:16.359Z,54.69
2022-10-05T01:35:18.183Z,54.65
2022-10-05T01:36:20.039Z,54.62
2022-10-05T01:37:21.887Z,54.60
2022-10-05T01:38:23.765Z,54.57
2022-10-05T01:39:25.590Z,54.56
2022-10-05T01:40:27.426Z,54.55
2022-10-05T01:41:29.390Z,54.51
2022-10-05T01:42:31.217Z,54.53
2022-10-05T01:43:33.091Z,54.56
2022-10-05T01:44:34.942Z,54.52
2022-10-05T01:45:36.806Z,54.56
2022-10-05T01:46:38.760Z,54.53
2022-10-05T01:47:40.573Z,54.49
2022-10-05T01:48:42.433Z,54.51
2022-10-05T01:49:44.289Z,54.53
2022-10-05T01:50:46.185Z,54.61
2022-10-05T01:51:48.007Z,54.59
2022-10-05T01:52:49.840Z,54.51
2022-10-05T01:53:51.671Z,54.37
2022-10-05T01:54:53.476Z,54.26
2022-10-05T01:55:55.279Z,54.20
2022-10-05T01:56:57.095Z,54.17
2022-10-05T01:57:58.900Z,54.18
2022-10-05T01:59:00.933Z,54.25
2022-10-05T02:00:02.740Z,54.36
2022-10-05T02:01:04.636Z,54.40
2022-10-05T02:02:06.592Z,54.33
2022-10-05T02:03:08.377Z,54.26
2022-10-05T02:04:10.211Z,54.19
2022-10-05T02:05:12.044Z,54.16
2022-10-05T02:06:13.951Z,54.20
2022-10-05T02:07:15.762Z,54.25
2022-10-05T02:08:17.555Z,54.25
2022-10-05T02:09:19.413Z,54.23
2022-10-05T02:10:21.237Z,54.25
2022-10-05T02:11:23.030Z,54.29
2022-10-05T02:12:24.866Z,54.38
2022-10-05T02:13:26.684Z,54.33
2022-10-05T02:14:28.539Z,54.21
2022-10-05T02:15:30.356Z,54.13
2022-10-05T02:16:32.147Z,54.14
2022-10-05T02:17:33.854Z,54.15
2022-10-05T02:18:35.658Z,54.20
2022-10-05T02:19:37.531Z,54.23
2022-10-05T02:20:39.423Z,54.21
2022-10-05T02:21:41.421Z,54.21
2022-10-05T02:22:43.233Z,54.13
2022-10-05T02:23:45.065Z,54.14
2022-10-05T02:24:46.904Z,54.15
2022-10-05T02:25:48.714Z,54.14
2022-10-05T02:26:50.638Z,54.21
2022-10-05T02:27:52.501Z,54.28
2022-10-05T02:28:54.362Z,54.38
2022-10-05T02:29:56.208Z,54.39
2022-10-05T02:30:58.118Z,54.30
2022-10-05T02:31:59.935Z,54.28
2022-10-05T02:33:01.832Z,54.24
2022-10-05T02:34:03.628Z,54.19
2022-10-05T02:35:05.486Z,54.13
2022-10-05T02:36:07.624Z,54.18
2022-10-05T02:37:09.439Z,54.21
2022-10-05T02:38:11.234Z,54.23
2022-10-05T02:39:13.064Z,54.22
2022-10-05T02:40:15.043Z,54.26
2022-10-05T02:41:16.848Z,54.28
2022-10-05T02:42:18.659Z,54.23
2022-10-05T02:43:20.476Z,54.26
2022-10-05T02:44:22.308Z,54.28
2022-10-05T02:45:24.141Z,54.28
2022-10-05T02:46:26.221Z,54.24
2022-10-05T02:47:28.095Z,54.21
2022-10-05T02:48:29.889Z,54.15
2022-10-05T02:49:31.713Z,54.17
2022-10-05T02:50:33.980Z,54.21
2022-10-05T02:51:35.822Z,54.23
2022-10-05T02:52:37.654Z,54.20
2022-10-05T02:53:39.449Z,54.20
2022-10-05T02:54:41.272Z,54.24
2022-10-05T02:55:43.149Z,54.26
2022-10-05T02:56:45.356Z,54.25
2022-10-05T02:57:47.365Z,54.24
2022-10-05T02:58:49.163Z,54.20
2022-10-05T02:59:50.980Z,54.19
2022-10-05T03:00:53.141Z,54.21
2022-10-05T03:01:55.053Z,54.16
2022-10-05T03:02:56.895Z,54.14
2022-10-05T03:03:58.704Z,54.12
2022-10-05T03:05:00.530Z,54.16
2022-10-05T03:06:02.363Z,54.17
2022-10-05T03:07:04.189Z,54.16
2022-10-05T03:08:06.026Z,54.20
2022-10-05T03:09:07.820Z,54.21
2022-10-05T03:10:09.726Z,54.26
2022-10-05T03:11:11.571Z,54.28
2022-10-05T03:12:13.377Z,54.22
2022-10-05T03:13:15.188Z,54.19
2022-10-05T03:14:17.039Z,54.18
2022-10-05T03:15:18.837Z,54.17
2022-10-05T03:16:20.848Z,54.20
2022-10-05T03:17:22.598Z,54.26
2022-10-05T03:18:28.552Z,54.25
2022-10-05T03:19:28.022Z,54.24
2022-10-05T03:20:29.825Z,54.25
2022-10-05T03:21:31.883Z,54.23
2022-10-05T03:22:33.958Z,54.22
2022-10-05T03:23:35.778Z,54.15
2022-10-05T03:24:37.568Z,54.15
2022-10-05T03:25:39.394Z,54.02
2022-10-05T03:26:41.365Z,53.93
2022-10-05T03:27:43.163Z,53.95
2022-10-05T03:28:44.970Z,53.92
2022-10-05T03:29:46.802Z,53.93
2022-10-05T03:30:48.748Z,53.94
2022-10-05T03:31:50.572Z,53.89
2022-10-05T03:32:52.384Z,53.87
2022-10-05T03:33:54.186Z,53.87
2022-10-05T03:34:56.008Z,53.86
2022-10-05T03:35:57.827Z,53.80
2022-10-05T03:36:59.676Z,53.82
2022-10-05T03:38:01.831Z,53.88
2022-10-05T03:39:03.703Z,54.03
2022-10-05T03:40:05.791Z,54.03
2022-10-05T03:41:07.612Z,53.74
2022-10-05T03:42:09.455Z,53.69
2022-10-05T03:43:11.254Z,53.68
2022-10-05T03:44:13.050Z,53.72
2022-10-05T03:45:14.854Z,53.74
2022-10-05T03:46:16.710Z,53.75
2022-10-05T03:47:18.523Z,53.73
2022-10-05T03:48:20.586Z,53.74
2022-10-05T03:49:22.585Z,53.76
2022-10-05T03:50:24.392Z,53.81
2022-10-05T03:51:26.209Z,53.87
2022-10-05T03:52:28.066Z,53.92
2022-10-05T03:53:31.344Z,54.00
2022-10-05T03:54:33.097Z,54.07
2022-10-05T03:55:34.915Z,54.05
2022-10-05T03:56:36.823Z,53.99
2022-10-05T03:57:38.675Z,53.97
2022-10-05T03:58:40.526Z,53.87
2022-10-05T03:59:42.360Z,53.81
2022-10-05T04:00:44.309Z,53.74
2022-10-05T04:01:46.290Z,53.80
2022-10-05T04:02:48.388Z,53.86
2022-10-05T04:03:50.197Z,53.88
2022-10-05T04:04:52.026Z,53.81
2022-10-05T04:05:53.848Z,53.81
2022-10-05T04:06:55.798Z,53.92
2022-10-05T04:07:57.664Z,53.96
2022-10-05T04:08:59.636Z,53.99
2022-10-05T04:10:01.474Z,54.06
2022-10-05T04:11:03.324Z,54.13
2022-10-05T04:12:05.152Z,54.24
2022-10-05T04:13:07.009Z,54.36
2022-10-05T04:14:08.838Z,54.43
2022-10-05T04:15:13.164Z,54.55
2022-10-05T04:16:14.592Z,54.70
2022-10-05T04:17:16.578Z,54.70
2022-10-05T04:18:18.459Z,54.79
2022-10-05T04:19:20.314Z,54.87
2022-10-05T04:20:22.452Z,54.87
2022-10-05T04:21:24.288Z,54.91
2022-10-05T04:22:26.129Z,54.99
2022-10-05T04:23:27.973Z,55.11
2022-10-05T04:24:29.825Z,55.19
2022-10-05T04:25:31.664Z,55.30
2022-10-05T04:26:33.612Z,55.33
2022-10-05T04:27:35.441Z,55.41
2022-10-05T04:28:37.326Z,55.44
2022-10-05T04:29:39.149Z,55.46
2022-10-05T04:30:41.088Z,55.50
2022-10-05T04:31:43.002Z,55.56
2022-10-05T04:32:44.951Z,55.63
2022-10-05T04:33:46.828Z,55.70
2022-10-05T04:34:48.653Z,55.75
2022-10-05T04:35:50.487Z,55.81
2022-10-05T04:36:52.433Z,55.82
2022-10-05T04:37:54.277Z,55.86
2022-10-05T04:38:56.154Z,55.85
2022-10-05T04:39:58.012Z,55.84
2022-10-05T04:40:59.967Z,55.95
2022-10-05T04:42:01.802Z,56.06
2022-10-05T04:43:03.634Z,56.20
2022-10-05T04:44:05.496Z,56.27
2022-10-05T04:45:07.327Z,56.17
2022-10-05T04:46:09.668Z,56.13
2022-10-05T04:47:11.549Z,56.09
2022-10-05T04:48:13.440Z,56.16
2022-10-05T04:49:15.309Z,56.24
2022-10-05T04:50:18.449Z,56.28
2022-10-05T04:51:20.285Z,56.20
2022-10-05T04:52:22.113Z,56.17
2022-10-05T04:53:23.955Z,56.10
2022-10-05T04:54:25.850Z,56.08
2022-10-05T04:55:27.741Z,56.01
2022-10-05T04:56:29.572Z,56.02
2022-10-05T04:57:31.411Z,56.10
2022-10-05T04:58:33.552Z,56.05
2022-10-05T04:59:35.431Z,56.03
2022-10-05T05:00:37.418Z,56.07
2022-10-05T05:01:39.420Z,56.03
2022-10-05T05:02:41.255Z,55.92
2022-10-05T05:03:43.132Z,55.91
2022-10-05T05:04:48.288Z,55.93
2022-10-05T05:06:15.382Z,55.90
2022-10-05T05:06:52.448Z,55.95
2022-10-05T05:07:54.270Z,56.05
2022-10-05T05:08:56.100Z,56.01
2022-10-05T05:09:57.974Z,55.99
2022-10-05T05:10:59.943Z,56.10
2022-10-05T05:12:01.761Z,56.19
2022-10-05T05:13:03.594Z,56.17
2022-10-05T05:14:05.477Z,56.05
2022-10-05T05:15:07.352Z,55.94
2022-10-05T05:16:09.666Z,55.92
2022-10-05T05:17:13.248Z,55.84
2022-10-05T05:18:15.302Z,55.84
2022-10-05T05:19:17.104Z,55.84
2022-10-05T05:20:19.197Z,55.83
2022-10-05T05:21:21.031Z,55.80
2022-10-05T05:22:22.866Z,55.72
2022-10-05T05:23:24.685Z,55.68
2022-10-05T05:24:26.531Z,55.67
2022-10-05T05:25:28.414Z,55.62
2022-10-05T05:26:30.359Z,55.62
2022-10-05T05:27:32.181Z,55.64
2022-10-05T05:28:34.083Z,55.61
2022-10-05T05:29:35.914Z,55.74
2022-10-05T05:30:38.081Z,55.79
2022-10-05T05:31:39.952Z,55.73
2022-10-05T05:32:41.745Z,55.70
2022-10-05T05:33:43.562Z,55.64
2022-10-05T05:34:45.387Z,55.62
2022-10-05T05:35:47.253Z,55.69
2022-10-05T05:36:49.405Z,55.86
2022-10-05T05:37:51.437Z,55.98
2022-10-05T05:38:53.283Z,55.94
2022-10-05T05:39:55.115Z,55.89
2022-10-05T05:40:56.971Z,55.83
2022-10-05T05:41:59.000Z,55.80
2022-10-05T05:43:00.838Z,55.86
2022-10-05T05:44:02.664Z,55.92
2022-10-05T05:45:04.492Z,55.83
2022-10-05T05:46:06.583Z,55.74
2022-10-05T05:47:08.802Z,55.63
2022-10-05T05:48:10.860Z,55.61
2022-10-05T05:49:12.699Z,55.60
2022-10-05T05:50:15.145Z,55.46
2022-10-05T05:51:17.007Z,55.35
2022-10-05T05:52:18.835Z,55.32
2022-10-05T05:53:20.663Z,55.30
2022-10-05T05:54:22.514Z,55.22
2022-10-05T05:55:29.068Z,55.23
2022-10-05T05:56:28.142Z,55.20
2022-10-05T05:57:30.058Z,55.14
2022-10-05T05:58:31.883Z,55.13
2022-10-05T05:59:35.537Z,55.21
2022-10-05T06:00:37.377Z,55.36
2022-10-05T06:01:44.196Z,55.47
2022-10-05T06:02:42.944Z,55.50
2022-10-05T06:03:44.911Z,55.45
2022-10-05T06:04:46.745Z,55.61
2022-10-05T06:05:48.565Z,55.86
2022-10-05T06:06:50.561Z,56.06
2022-10-05T06:07:52.404Z,56.10
2022-10-05T06:08:54.231Z,56.10
2022-10-05T06:09:56.059Z,55.95
2022-10-05T06:10:57.876Z,55.79
2022-10-05T06:11:59.724Z,55.89
2022-10-05T06:13:01.925Z,55.87
2022-10-05T06:14:03.899Z,55.86
2022-10-05T06:15:05.713Z,55.76
2022-10-05T06:16:07.762Z,55.64
2022-10-05T06:17:10.400Z,55.58
2022-10-05T06:18:12.214Z,55.56
2022-10-05T06:19:14.023Z,55.62
2022-10-05T06:20:17.464Z,55.53
2022-10-05T06:21:19.250Z,55.42
2022-10-05T06:22:21.079Z,55.22
2022-10-05T06:23:22.874Z,55.09
2022-10-05T06:24:24.689Z,55.08
2022-10-05T06:25:26.513Z,55.11
2022-10-05T06:26:28.407Z,55.12
2022-10-05T06:27:30.284Z,55.15
2022-10-05T06:28:32.244Z,55.33
2022-10-05T06:29:34.099Z,55.39
2022-10-05T06:30:36.015Z,55.37
2022-10-05T06:31:37.915Z,55.41
2022-10-05T06:32:39.830Z,55.55
2022-10-05T06:33:41.626Z,55.59
2022-10-05T06:34:43.486Z,55.39
2022-10-05T06:35:45.305Z,55.23
2022-10-05T06:36:47.694Z,55.11
2022-10-05T06:37:49.899Z,55.01
2022-10-05T06:38:51.750Z,55.00
2022-10-05T06:39:55.480Z,55.10
2022-10-05T06:40:57.372Z,55.20
2022-10-05T06:41:59.158Z,55.26
2022-10-05T06:43:01.002Z,55.18
2022-10-05T06:44:02.873Z,55.12
2022-10-05T06:45:04.583Z,55.07
2022-10-05T06:46:06.411Z,54.94
2022-10-05T06:47:08.208Z,54.73
2022-10-05T06:48:10.045Z,54.57
2022-10-05T06:49:11.882Z,54.46
2022-10-05T06:50:13.693Z,54.53
2022-10-05T06:51:15.513Z,54.71
2022-10-05T06:52:17.369Z,54.87
2022-10-05T06:53:19.203Z,54.92
2022-10-05T06:54:21.129Z,54.74
2022-10-05T06:55:22.954Z,54.47
2022-10-05T06:56:24.811Z,54.44
2022-10-05T06:57:26.628Z,54.53
2022-10-05T06:58:28.478Z,54.53
2022-10-05T06:59:30.358Z,54.86
2022-10-05T07:00:32.278Z,54.98
2022-10-05T07:01:34.116Z,55.04
2022-10-05T07:02:36.070Z,54.92
2022-10-05T07:03:38.051Z,54.68
2022-10-05T07:04:39.994Z,54.73
2022-10-05T07:05:42.033Z,54.63
2022-10-05T07:06:43.816Z,54.56
2022-10-05T07:07:45.632Z,54.53
2022-10-05T07:08:47.474Z,54.45
2022-10-05T07:09:49.286Z,54.48
2022-10-05T07:10:51.308Z,54.57
2022-10-05T07:11:58.497Z,54.63
2022-10-05T07:12:56.734Z,54.49
2022-10-05T07:13:58.592Z,54.48
2022-10-05T07:15:00.482Z,54.28
2022-10-05T07:16:02.358Z,54.36
2022-10-05T07:17:04.229Z,54.28
2022-10-05T07:18:06.157Z,54.45
2022-10-05T07:19:07.999Z,54.56
2022-10-05T07:20:09.812Z,54.55
2022-10-05T07:21:11.604Z,54.61
2022-10-05T07:22:13.323Z,54.86
2022-10-05T07:23:15.206Z,54.80
2022-10-05T07:24:17.073Z,54.40
2022-10-05T07:25:18.930Z,54.16
2022-10-05T07:26:20.733Z,54.30
2022-10-05T07:27:22.536Z,53.98
2022-10-05T07:28:24.477Z,53.97
2022-10-05T07:29:26.279Z,54.21
2022-10-05T07:30:31.208Z,54.49
2022-10-05T07:31:33.039Z,54.53
2022-10-05T07:32:53.501Z,54.51
2022-10-05T07:34:01.509Z,54.42
2022-10-05T07:35:03.406Z,54.54
2022-10-05T07:36:05.315Z,54.75
2022-10-05T07:37:07.111Z,54.90
2022-10-05T07:38:08.935Z,54.26
2022-10-05T07:39:10.757Z,54.60
2022-10-05T07:40:13.416Z,54.60
2022-10-05T07:41:15.458Z,54.40
2022-10-05T07:42:17.317Z,54.37
2022-10-05T07:43:19.103Z,54.69
2022-10-05T07:44:20.916Z,54.92
2022-10-05T07:45:22.763Z,54.92
2022-10-05T07:46:24.639Z,54.99
2022-10-05T07:47:26.406Z,54.91
2022-10-05T07:48:28.218Z,54.25
2022-10-05T07:49:30.033Z,53.84
2022-10-05T07:50:31.868Z,53.95
2022-10-05T07:51:33.668Z,54.29
2022-10-05T07:52:35.506Z,54.26
2022-10-05T07:53:37.320Z,54.46
2022-10-05T07:54:39.140Z,54.36
2022-10-05T07:55:40.964Z,54.25
2022-10-05T07:56:42.782Z,54.17
2022-10-05T07:57:44.807Z,54.21
2022-10-05T07:58:46.596Z,54.16
2022-10-05T07:59:48.395Z,53.95
2022-10-05T08:00:50.239Z,53.99
2022-10-05T08:01:52.437Z,54.00
2022-10-05T08:02:54.317Z,53.93
2022-10-05T08:03:56.080Z,53.82
2022-10-05T08:05:16.275Z,53.69
2022-10-05T08:06:18.366Z,53.30
2022-10-05T08:07:20.204Z,53.07
2022-10-05T08:08:21.987Z,53.21
2022-10-05T08:09:23.855Z,53.51
2022-10-05T08:10:25.658Z,53.64
2022-10-05T08:11:27.520Z,53.70
2022-10-05T08:12:29.336Z,53.89
2022-10-05T08:13:31.150Z,53.91
2022-10-05T08:14:32.957Z,53.99
2022-10-05T08:15:34.825Z,53.85
2022-10-05T08:16:36.801Z,53.50
2022-10-05T08:17:38.705Z,53.50
2022-10-05T08:18:40.512Z,53.48
2022-10-05T08:19:42.307Z,53.34
2022-10-05T08:20:44.229Z,53.08
2022-10-05T08:21:46.635Z,52.53
2022-10-05T08:22:48.680Z,51.99
2022-10-05T08:23:50.499Z,51.75
2022-10-05T08:24:52.323Z,51.90
2022-10-05T08:25:56.944Z,52.08
2022-10-05T08:26:58.859Z,52.44
2022-10-05T08:28:00.862Z,52.30
2022-10-05T08:29:02.738Z,52.02
2022-10-05T08:30:04.690Z,52.09
2022-10-05T08:31:06.580Z,52.53
2022-10-05T08:32:08.574Z,52.76
2022-10-05T08:33:10.546Z,52.84
2022-10-05T08:34:12.409Z,52.77
2022-10-05T08:35:14.282Z,52.87
2022-10-05T08:36:16.234Z,53.06
2022-10-05T08:37:18.095Z,53.21
2022-10-05T08:38:19.923Z,53.45
2022-10-05T08:39:21.979Z,53.55
2022-10-05T08:40:23.813Z,52.84
2022-10-05T08:41:25.634Z,52.16
2022-10-05T08:42:27.498Z,51.89
2022-10-05T08:43:33.005Z,51.73
2022-10-05T08:44:32.973Z,51.68
2022-10-05T08:45:34.856Z,51.70
2022-10-05T08:46:36.786Z,51.78
2022-10-05T08:47:38.742Z,52.00
2022-10-05T08:48:40.655Z,51.87
2022-10-05T08:49:42.478Z,51.73
2022-10-05T08:50:44.306Z,51.79
2022-10-05T08:51:46.499Z,51.99
2022-10-05T08:52:48.595Z,52.27
2022-10-05T08:53:50.441Z,52.39
2022-10-05T08:54:52.287Z,52.52
2022-10-05T08:55:54.129Z,52.13
2022-10-05T08:56:58.837Z,51.61
2022-10-05T08:58:00.713Z,51.13
2022-10-05T08:59:02.564Z,50.76
2022-10-05T09:00:04.440Z,51.10
2022-10-05T09:01:06.315Z,51.10
2022-10-05T09:02:08.244Z,50.79
2022-10-05T09:03:10.088Z,50.87
2022-10-05T09:04:12.036Z,50.95
2022-10-05T09:05:13.873Z,51.23
2022-10-05T09:06:16.320Z,51.35
2022-10-05T09:07:18.151Z,51.26
2022-10-05T09:08:20.043Z,51.35
2022-10-05T09:09:21.875Z,51.69
2022-10-05T09:10:23.718Z,51.50
2022-10-05T09:11:25.534Z,51.44
2022-10-05T09:12:27.373Z,51.84
2022-10-05T09:13:29.245Z,52.01
2022-10-05T09:14:31.067Z,52.18
2022-10-05T09:15:32.959Z,52.29
2022-10-05T09:16:34.733Z,52.26
2022-10-05T09:17:39.358Z,52.34
2022-10-05T09:18:40.291Z,52.17
2022-10-05T09:19:42.239Z,52.17
2022-10-05T09:20:44.064Z,52.12
2022-10-05T09:21:46.222Z,52.33
2022-10-05T09:22:48.166Z,52.46
2022-10-05T09:23:50.037Z,52.48
2022-10-05T09:24:51.886Z,52.79
2022-10-05T09:25:53.711Z,52.19
2022-10-05T09:26:55.640Z,52.51
2022-10-05T09:27:57.514Z,52.04
2022-10-05T09:28:59.372Z,52.14
2022-10-05T09:30:01.198Z,51.89
2022-10-05T09:31:03.070Z,51.50
2022-10-05T09:32:04.858Z,51.72
2022-10-05T09:33:06.713Z,51.63
2022-10-05T09:41:36.829Z,51.80
2022-10-05T09:42:38.741Z,51.80
2022-10-05T09:43:40.551Z,51.60
2022-10-05T09:44:42.679Z,51.47
2022-10-05T09:45:44.536Z,51.36
2022-10-05T09:46:46.414Z,51.47
2022-10-05T09:47:48.256Z,51.53
2022-10-05T09:48:50.130Z,51.51
2022-10-05T09:49:51.986Z,51.51
2022-10-05T09:50:53.820Z,51.76
2022-10-05T09:51:55.673Z,51.82
2022-10-05T09:52:57.508Z,51.71
2022-10-05T09:53:59.363Z,51.75
2022-10-05T09:55:01.208Z,51.76
2022-10-05T09:56:03.058Z,51.58
2022-10-05T09:57:04.978Z,51.80
2022-10-05T09:58:06.900Z,50.60
2022-10-05T09:59:08.814Z,50.93
2022-10-05T10:00:11.092Z,50.58
2022-10-05T10:01:29.273Z,50.74
2022-10-05T10:02:16.732Z,50.38
2022-10-05T10:03:18.698Z,50.68
2022-10-05T10:04:20.506Z,50.27
2022-10-05T10:05:22.347Z,49.74
2022-10-05T10:06:24.187Z,49.74
2022-10-05T10:07:26.171Z,50.00
2022-10-05T10:08:28.018Z,49.44
2022-10-05T10:09:29.854Z,50.05
2022-10-05T10:10:31.679Z,49.98
2022-10-05T10:11:33.531Z,50.08
2022-10-05T10:12:35.421Z,49.94
2022-10-05T10:13:37.476Z,50.16
2022-10-05T10:14:39.330Z,50.62
2022-10-05T10:15:41.252Z,50.64
2022-10-05T10:16:43.115Z,50.66
2022-10-05T10:17:45.066Z,50.58
2022-10-05T10:18:46.917Z,50.19
2022-10-05T10:19:48.771Z,50.19
2022-10-05T10:20:50.589Z,49.95
2022-10-05T10:21:52.533Z,50.07
2022-10-05T10:22:54.450Z,50.54
2022-10-05T10:23:56.366Z,50.68
2022-10-05T10:24:58.239Z,50.28
2022-10-05T10:26:00.088Z,50.11
2022-10-05T10:27:01.903Z,50.69
2022-10-05T10:28:03.826Z,50.89
2022-10-05T10:29:05.636Z,50.89
2022-10-05T10:30:07.874Z,50.90
2022-10-05T10:31:09.892Z,50.81
2022-10-05T10:32:29.124Z,50.56
2022-10-05T10:34:46.530Z,50.35
2022-10-05T10:35:48.335Z,50.59
2022-10-05T10:36:50.450Z,50.76
2022-10-05T10:37:52.549Z,50.81
2022-10-05T10:38:54.356Z,50.95
2022-10-05T10:39:56.205Z,51.04
2022-10-05T10:40:58.103Z,50.66
2022-10-05T10:41:59.897Z,50.86
2022-10-05T10:43:01.721Z,50.64
2022-10-05T10:44:03.534Z,50.74
2022-10-05T10:45:05.496Z,50.84
2022-10-05T10:46:07.434Z,50.66
2022-10-05T10:47:09.322Z,50.56
2022-10-05T10:48:11.118Z,50.57
2022-10-05T10:49:12.838Z,51.14
2022-10-05T10:50:14.686Z,51.25
2022-10-05T10:51:16.494Z,51.49
2022-10-05T10:52:18.290Z,51.12
2022-10-05T10:53:20.096Z,51.29
2022-10-05T10:54:21.906Z,51.43
2022-10-05T10:55:23.763Z,51.68
2022-10-05T10:56:25.725Z,51.74
2022-10-05T10:57:27.514Z,51.65
2022-10-05T10:59:32.188Z,51.34
2022-10-05T11:00:34.054Z,51.34
2022-10-05T11:01:35.934Z,51.06
2022-10-05T11:02:37.714Z,51.18
2022-10-05T11:03:39.490Z,51.48
2022-10-05T11:04:41.295Z,51.69
2022-10-05T11:05:47.917Z,51.65
2022-10-05T11:06:46.772Z,51.66
2022-10-05T11:07:48.595Z,51.76
2022-10-05T11:08:50.409Z,51.92
2022-10-05T11:09:52.214Z,52.02
2022-10-05T11:10:54.172Z,51.98
2022-10-05T11:11:55.985Z,51.87
2022-10-05T11:12:57.799Z,51.80
2022-10-05T11:13:59.593Z,51.91
2022-10-05T11:15:01.382Z,51.61
2022-10-05T11:16:03.362Z,51.45
2022-10-05T11:17:05.351Z,50.97
2022-10-05T11:18:07.154Z,50.76
2022-10-05T11:19:08.949Z,51.04
2022-10-05T11:20:11.070Z,51.45
2022-10-05T11:21:12.900Z,51.47
2022-10-05T11:22:14.697Z,51.15
2022-10-05T11:23:16.516Z,50.63
2022-10-05T11:24:18.330Z,50.96
2022-10-05T11:25:20.130Z,51.11
2022-10-05T11:26:22.077Z,51.18
2022-10-05T11:27:23.908Z,50.96
2022-10-05T11:28:25.783Z,51.01
2022-10-05T11:29:27.710Z,51.16
2022-10-05T11:30:29.641Z,51.47
2022-10-05T11:31:31.625Z,51.04
2022-10-05T11:32:33.660Z,50.74
2022-10-05T11:33:35.471Z,50.70
2022-10-05T11:34:37.279Z,50.88
2022-10-05T11:35:39.114Z,50.79
2022-10-05T11:36:40.995Z,50.51
2022-10-05T11:37:42.818Z,50.64
2022-10-05T11:38:44.610Z,50.41
2022-10-05T11:39:46.419Z,50.47
2022-10-05T11:40:48.430Z,50.32
2022-10-05T11:41:50.740Z,50.10
2022-10-05T11:42:52.812Z,50.08
2022-10-05T11:43:54.619Z,50.01
2022-10-05T11:44:56.412Z,50.22
2022-10-05T11:45:58.237Z,50.39
2022-10-05T11:47:00.482Z,50.27
2022-10-05T11:48:02.311Z,50.03
2022-10-05T11:49:04.114Z,50.18
2022-10-05T11:50:06.026Z,50.25
2022-10-05T11:51:07.822Z,50.41
2022-10-05T11:52:09.682Z,50.55
2022-10-05T11:53:11.503Z,50.21
2022-10-05T11:54:13.300Z,50.42
2022-10-05T11:55:15.110Z,50.24
2022-10-05T11:56:16.977Z,50.04
2022-10-05T11:57:18.766Z,50.35
2022-10-05T11:58:20.568Z,50.32
2022-10-05T11:59:22.384Z,50.16
2022-10-05T12:00:24.198Z,50.11
2022-10-05T12:01:25.988Z,50.06
2022-10-05T12:02:28.050Z,50.13
2022-10-05T12:03:29.896Z,50.11
2022-10-05T12:04:31.748Z,50.27
2022-10-05T12:05:33.564Z,50.19
2022-10-05T12:06:35.370Z,49.74
2022-10-05T12:07:37.242Z,49.75
2022-10-05T12:08:39.051Z,49.88
2022-10-05T12:09:40.759Z,49.84
2022-10-05T12:10:42.757Z,49.46
2022-10-05T12:11:44.569Z,49.48
2022-10-05T12:12:46.409Z,49.72
2022-10-05T12:13:48.202Z,49.83
2022-10-05T12:14:50.004Z,49.43
2022-10-05T12:15:51.843Z,49.66
2022-10-05T12:16:53.636Z,49.64
2022-10-05T12:17:55.554Z,49.13
2022-10-05T12:18:57.382Z,49.20
2022-10-05T12:19:59.194Z,48.76
2022-10-05T12:21:01.279Z,48.13
2022-10-05T12:22:03.095Z,48.16
2022-10-05T12:23:04.923Z,48.26
2022-10-05T12:24:06.877Z,48.47
2022-10-05T12:25:08.675Z,48.47
2022-10-05T12:26:10.780Z,48.15
2022-10-05T12:27:12.586Z,48.42
2022-10-05T12:28:14.495Z,48.79
2022-10-05T12:29:16.239Z,48.72
2022-10-05T12:30:19.460Z,49.15
2022-10-05T12:31:21.326Z,49.11
2022-10-05T12:32:23.075Z,48.98
2022-10-05T12:33:25.006Z,48.83
2022-10-05T12:34:26.824Z,48.80
2022-10-05T12:35:46.716Z,48.76
2022-10-05T12:36:52.576Z,48.65
2022-10-05T12:37:35.854Z,48.87
2022-10-05T12:38:37.685Z,48.88
2022-10-05T12:39:39.505Z,48.85
2022-10-05T12:40:41.441Z,48.91
2022-10-05T12:41:43.444Z,48.79
2022-10-05T12:42:45.249Z,48.97
2022-10-05T12:43:47.093Z,49.08
2022-10-05T12:44:48.919Z,48.90
2022-10-05T12:45:50.781Z,48.58
2022-10-05T12:46:52.620Z,48.56
2022-10-05T12:47:54.445Z,48.46
2022-10-05T12:48:56.339Z,48.20
2022-10-05T12:49:58.180Z,48.29
2022-10-05T12:51:00.011Z,48.22
2022-10-05T12:52:01.835Z,48.33
2022-10-05T12:53:03.702Z,48.35
2022-10-05T12:54:05.556Z,48.38
2022-10-05T12:55:07.383Z,48.58
2022-10-05T12:56:10.618Z,48.32
2022-10-05T12:57:12.555Z,48.13
2022-10-05T12:58:14.389Z,48.09
2022-10-05T12:59:16.243Z,48.02
2022-10-05T13:00:22.645Z,48.04
2022-10-05T13:01:21.746Z,48.14
2022-10-05T13:02:23.565Z,48.25
2022-10-05T13:03:25.386Z,48.36
2022-10-05T13:04:27.274Z,48.29
2022-10-05T13:05:29.111Z,48.52
2022-10-05T13:06:30.950Z,48.54
2022-10-05T13:07:32.773Z,48.56
2022-10-05T13:08:34.599Z,48.63
2022-10-05T13:09:36.482Z,48.50
2022-10-05T13:10:38.333Z,48.63
2022-10-05T13:11:40.187Z,48.61
2022-10-05T13:12:41.980Z,48.67
2022-10-05T13:13:43.812Z,48.77
2022-10-05T13:14:45.698Z,48.69
2022-10-05T13:15:47.535Z,48.58
2022-10-05T13:16:54.641Z,48.76
2022-10-05T13:17:53.173Z,48.70
2022-10-05T13:18:55.002Z,48.89
2022-10-05T13:19:56.902Z,48.89
2022-10-05T13:20:58.720Z,48.75
2022-10-05T13:22:00.546Z,48.80
2022-10-05T13:23:02.376Z,48.93
2022-10-05T13:24:04.216Z,48.87
2022-10-05T13:25:06.095Z,48.88
2022-10-05T13:26:09.146Z,48.11
2022-10-05T13:27:10.978Z,48.31
2022-10-05T13:28:12.953Z,48.56